KCMH/CMH METAR and TAF weather

Enter ICAO airport designator
Station Type Date Time Source
KCMH METAR 2024/04/15 08:51 UTC NOAA

KCMH 150851Z 19005KT 10SM SCT060 BKN075 16/12 A2981 RMK AO2 SLP090 T01610117 55002 $


Station Type Date Time Source
KCMH Decoded METAR 2024/04/15 08:51 UTC NOAA

PORT COLUMBUS INTERNATIONAL AIRPORT, OH, United States (KCMH) 40-00N 82-53W 247M
Apr 15, 2024 - 04:51 AM EDT / 2024.04.15 0851 UTC
Wind: from the S (190 degrees) at 6 MPH (5 KT):0
Visibility: 10 mile(s):0
Sky conditions: mostly cloudy
Temperature: 61.0 F (16.1 C)
Dew Point: 53.1 F (11.7 C)
Relative Humidity: 75%
Pressure (altimeter): 29.81 in. Hg (1009 hPa)
Pressure tendency: 0.01 inches (0.2 hPa) lower than three hours ago
ob: KCMH 150851Z 19005KT 10SM SCT060 BKN075 16/12 A2981 RMK AO2 SLP090 T01610117 55002
cycle: 9

Station Type Date Time Source
KCMH TAF 2024/04/15 06:48 UTC NOAA